createdAt,value
2023-05-01T00:00:25.825Z,494.5000
2023-05-01T00:01:29.744Z,489.4167
2023-05-01T00:02:33.640Z,483.1667
2023-05-01T00:03:37.722Z,483.3333
2023-05-01T00:04:41.764Z,485.3333
2023-05-01T00:05:45.679Z,485.3333
2023-05-01T00:06:49.979Z,485.4167
2023-05-01T00:07:53.889Z,485.9167
2023-05-01T00:08:57.808Z,480.4167
2023-05-01T00:10:01.695Z,485.7500
2023-05-01T00:11:05.610Z,487.5833
2023-05-01T00:12:09.488Z,485.5833
2023-05-01T00:13:13.408Z,485.4167
2023-05-01T00:14:17.329Z,484.3333
2023-05-01T00:15:21.211Z,481.2500
2023-05-01T00:16:25.331Z,482.5833
2023-05-01T00:17:29.225Z,487.8333
2023-05-01T00:18:33.091Z,485.5833
2023-05-01T00:19:37.025Z,483.6667
2023-05-01T00:20:40.913Z,484.1667
2023-05-01T00:21:44.823Z,482.4167
2023-05-01T00:22:48.710Z,482.8333
2023-05-01T00:23:52.613Z,483.9167
2023-05-01T00:24:52.714Z,484.7273
2023-05-01T00:25:56.646Z,483.3333
2023-05-01T00:27:00.571Z,484.6667
2023-05-01T00:28:04.461Z,484.5000
2023-05-01T00:29:08.375Z,482.0833
2023-05-01T00:30:12.263Z,484.9167
2023-05-01T00:31:16.201Z,485.3333
2023-05-01T00:32:20.336Z,484.6667
2023-05-01T00:33:24.330Z,484.0000
2023-05-01T00:34:28.402Z,482.6667
2023-05-01T00:35:32.319Z,480.5833
2023-05-01T00:36:36.225Z,483.1667
2023-05-01T00:37:40.145Z,484.8333
2023-05-01T00:38:44.028Z,484.5833
2023-05-01T00:39:48.019Z,483.5833
2023-05-01T00:40:51.853Z,482.8333
2023-05-01T00:41:56.006Z,482.8333
2023-05-01T00:42:59.914Z,482.7500
2023-05-01T00:44:04.027Z,483.9167
2023-05-01T00:45:07.895Z,484.8333
2023-05-01T00:46:11.837Z,484.0833
2023-05-01T00:47:15.781Z,480.0000
2023-05-01T00:48:19.695Z,482.0000
2023-05-01T00:49:23.564Z,486.0833
2023-05-01T00:50:27.527Z,486.8333
2023-05-01T00:51:31.400Z,488.2500
2023-05-01T00:52:35.324Z,486.0000
2023-05-01T00:53:39.214Z,483.5000
2023-05-01T00:54:43.319Z,483.1667
2023-05-01T00:55:47.365Z,487.0833
2023-05-01T00:56:51.273Z,489.6667
2023-05-01T00:57:55.174Z,489.1667
2023-05-01T00:58:59.086Z,489.3333
2023-05-01T01:00:02.982Z,488.3333
2023-05-01T01:01:06.908Z,485.0833
2023-05-01T01:02:10.934Z,488.5000
2023-05-01T01:03:14.897Z,490.5833
2023-05-01T01:04:19.021Z,490.5833
2023-05-01T01:05:22.930Z,492.0000
2023-05-01T01:06:26.825Z,491.7500
2023-05-01T01:07:30.725Z,487.6667
2023-05-01T01:08:34.600Z,489.5833
2023-05-01T01:09:38.562Z,492.0833
2023-05-01T01:10:42.441Z,491.0833
2023-05-01T01:11:46.370Z,491.0833
2023-05-01T01:12:50.261Z,489.5833
2023-05-01T01:13:54.173Z,487.2500
2023-05-01T01:14:58.296Z,487.5000
2023-05-01T01:16:02.271Z,491.1667
2023-05-01T01:17:06.287Z,492.6667
2023-05-01T01:18:10.295Z,491.2500
2023-05-01T01:19:14.222Z,491.7500
2023-05-01T01:20:18.154Z,488.5833
2023-05-01T01:21:22.047Z,487.5833
2023-05-01T01:22:22.275Z,489.8182
2023-05-01T01:23:26.209Z,489.5833
2023-05-01T01:24:30.118Z,489.0833
2023-05-01T01:25:34.026Z,489.6667
2023-05-01T01:26:37.926Z,487.2500
2023-05-01T01:27:41.870Z,489.5833
2023-05-01T01:28:45.745Z,492.6667
2023-05-01T01:29:49.657Z,493.9167
2023-05-01T01:30:53.614Z,493.8333
2023-05-01T01:31:57.693Z,494.3333
2023-05-01T01:33:01.691Z,493.2500
2023-05-01T01:34:05.854Z,489.6667
2023-05-01T01:35:09.720Z,492.7500
2023-05-01T01:36:13.614Z,492.7500
2023-05-01T01:37:17.527Z,490.5833
2023-05-01T01:38:21.421Z,490.5833
2023-05-01T01:39:25.333Z,490.7500
2023-05-01T01:40:29.326Z,488.9167
2023-05-01T01:41:33.193Z,491.5000
2023-05-01T01:42:37.080Z,495.8333
2023-05-01T01:43:40.992Z,498.9167
2023-05-01T01:44:45.114Z,495.7500
2023-05-01T01:45:49.025Z,492.7500
2023-05-01T01:46:52.961Z,490.5833
2023-05-01T01:47:56.935Z,491.5833
2023-05-01T01:49:00.811Z,494.0833
2023-05-01T01:50:04.765Z,493.5000
2023-05-01T01:51:08.654Z,494.3333
2023-05-01T01:52:12.552Z,493.5833
2023-05-01T01:53:16.463Z,491.6667
2023-05-01T01:54:20.427Z,495.5833
2023-05-01T01:55:24.306Z,498.5833
2023-05-01T01:56:28.205Z,497.4167
2023-05-01T01:57:32.115Z,498.0000
2023-05-01T01:58:36.056Z,498.1667
2023-05-01T01:59:39.965Z,495.3333
2023-05-01T02:00:43.940Z,497.0000
2023-05-01T02:01:47.893Z,496.4167
2023-05-01T02:02:51.927Z,496.8333
2023-05-01T02:03:55.896Z,496.8333
2023-05-01T02:05:00.043Z,494.8333
2023-05-01T02:06:03.999Z,491.5833
2023-05-01T02:07:08.762Z,493.0000
2023-05-01T02:08:12.618Z,496.8333
2023-05-01T02:09:16.537Z,497.3333
2023-05-01T02:10:20.433Z,497.3333
2023-05-01T02:11:24.342Z,497.0833
2023-05-01T02:12:28.240Z,495.5000
2023-05-01T02:13:32.180Z,495.0000
2023-05-01T02:14:36.333Z,496.0833
2023-05-01T02:15:40.272Z,497.9167
2023-05-01T02:16:44.359Z,497.5833
2023-05-01T02:17:48.333Z,494.5000
2023-05-01T02:18:52.199Z,491.8333
2023-05-01T02:19:56.313Z,490.0000
2023-05-01T02:21:00.353Z,491.5000
2023-05-01T02:22:04.209Z,492.4167
2023-05-01T02:23:08.126Z,492.9167
2023-05-01T02:24:12.013Z,492.0833
2023-05-01T02:25:15.921Z,489.3333
2023-05-01T02:26:19.833Z,489.9167
2023-05-01T02:27:23.726Z,492.0000
2023-05-01T02:28:27.643Z,492.6667
2023-05-01T02:29:31.535Z,495.5833
2023-05-01T02:30:35.456Z,496.4167
2023-05-01T02:31:39.507Z,493.2500
2023-05-01T02:32:43.374Z,491.8333
2023-05-01T02:33:47.287Z,492.9167
2023-05-01T02:34:51.170Z,493.6667
2023-05-01T02:35:55.066Z,493.2500
2023-05-01T02:36:59.228Z,493.5000
2023-05-01T02:38:03.142Z,491.5000
2023-05-01T02:39:07.031Z,489.5000
2023-05-01T02:40:10.935Z,491.9167
2023-05-01T02:41:14.817Z,491.4167
2023-05-01T02:42:18.731Z,492.6667
2023-05-01T02:43:22.640Z,491.8333
2023-05-01T02:44:26.542Z,491.5833
2023-05-01T02:45:30.465Z,492.2500
2023-05-01T02:46:34.382Z,495.0833
2023-05-01T02:47:38.332Z,492.2500
2023-05-01T02:48:42.232Z,493.0833
2023-05-01T02:49:46.130Z,493.5000
2023-05-01T02:50:50.047Z,488.1667
2023-05-01T02:51:53.960Z,487.0000
2023-05-01T02:52:57.857Z,491.5833
2023-05-01T02:54:02.002Z,494.3333
2023-05-01T02:55:05.909Z,495.9167
2023-05-01T02:56:09.809Z,496.2500
2023-05-01T02:57:13.730Z,494.0833
2023-05-01T02:58:17.613Z,493.5833
2023-05-01T02:59:21.499Z,496.2500
2023-05-01T03:00:25.405Z,496.5833
2023-05-01T03:01:29.326Z,497.6667
2023-05-01T03:02:33.222Z,497.3333
2023-05-01T03:03:37.111Z,494.7500
2023-05-01T03:04:41.053Z,491.5000
2023-05-01T03:05:44.912Z,494.4167
2023-05-01T03:06:49.255Z,496.5833
2023-05-01T03:07:53.142Z,496.0000
2023-05-01T03:08:57.061Z,495.9167
2023-05-01T03:10:00.959Z,494.4167
2023-05-01T03:11:04.860Z,490.3333
2023-05-01T03:12:08.779Z,492.2500
2023-05-01T03:13:12.681Z,494.1667
2023-05-01T03:14:16.584Z,494.0000
2023-05-01T03:15:20.482Z,493.8333
2023-05-01T03:16:24.412Z,492.0833
2023-05-01T03:17:28.303Z,488.5833
2023-05-01T03:18:32.182Z,487.0000
2023-05-01T03:19:36.087Z,488.7500
2023-05-01T03:20:39.985Z,489.9167
2023-05-01T03:21:44.222Z,490.8333
2023-05-01T03:22:48.119Z,490.8333
2023-05-01T03:23:52.012Z,490.4167
2023-05-01T03:24:55.933Z,488.6667
2023-05-01T03:25:59.807Z,488.7500
2023-05-01T03:27:03.723Z,490.4167
2023-05-01T03:28:07.620Z,492.2500
2023-05-01T03:29:11.773Z,492.9167
2023-05-01T03:30:15.668Z,492.1667
2023-05-01T03:31:19.833Z,494.0833
2023-05-01T03:32:23.801Z,496.9167
2023-05-01T03:33:27.678Z,496.5000
2023-05-01T03:34:31.608Z,495.7500
2023-05-01T03:35:35.889Z,492.9167
2023-05-01T03:36:39.922Z,491.0833
2023-05-01T03:37:43.859Z,490.0833
2023-05-01T03:38:47.760Z,494.3333
2023-05-01T03:39:51.694Z,494.9167
2023-05-01T03:40:55.643Z,494.7500
2023-05-01T03:41:59.871Z,493.5000
2023-05-01T03:43:03.786Z,492.7500
2023-05-01T03:44:07.665Z,489.6667
2023-05-01T03:45:11.560Z,490.4167
2023-05-01T03:46:15.542Z,498.5000
2023-05-01T03:47:19.493Z,501.0000
2023-05-01T03:48:23.373Z,498.8333
2023-05-01T03:49:27.292Z,497.8333
2023-05-01T03:50:31.222Z,492.5833
2023-05-01T03:51:31.357Z,490.9091
2023-05-01T03:52:35.315Z,491.3333
2023-05-01T03:53:39.198Z,493.6667
2023-05-01T03:54:43.096Z,495.7500
2023-05-01T03:55:46.991Z,495.6667
2023-05-01T03:56:50.932Z,491.9167
2023-05-01T03:57:54.842Z,492.0000
2023-05-01T03:58:58.971Z,493.6667
2023-05-01T04:00:02.862Z,491.6667
2023-05-01T04:01:06.774Z,490.2500
2023-05-01T04:02:10.725Z,492.0000
2023-05-01T04:03:14.717Z,488.6667
2023-05-01T04:04:18.767Z,488.5000
2023-05-01T04:05:22.674Z,489.0833
2023-05-01T04:06:26.595Z,490.0000
2023-05-01T04:07:30.487Z,492.1667
2023-05-01T04:08:34.390Z,491.9167
2023-05-01T04:09:38.286Z,485.5000
2023-05-01T04:10:42.209Z,484.5000
2023-05-01T04:11:46.462Z,487.2500
2023-05-01T04:12:50.356Z,488.9167
2023-05-01T04:13:54.274Z,488.1667
2023-05-01T04:14:58.484Z,487.7500
2023-05-01T04:16:02.415Z,484.4167
2023-05-01T04:17:06.391Z,483.0000
2023-05-01T04:18:10.333Z,485.9167
2023-05-01T04:19:14.279Z,490.3333
2023-05-01T04:20:18.162Z,492.2500
2023-05-01T04:21:22.100Z,493.5833
2023-05-01T04:22:26.320Z,490.8333
2023-05-01T04:23:30.230Z,487.9167
2023-05-01T04:24:34.141Z,486.4167
2023-05-01T04:25:38.052Z,488.1667
2023-05-01T04:26:41.967Z,487.8333
2023-05-01T04:27:45.912Z,487.5000
2023-05-01T04:28:49.784Z,489.0833
2023-05-01T04:29:54.334Z,483.2500
2023-05-01T04:30:58.439Z,483.5833
2023-05-01T04:32:02.391Z,486.7500
2023-05-01T04:33:06.416Z,487.9167
2023-05-01T04:34:10.330Z,490.4167
2023-05-01T04:35:14.237Z,490.3333
2023-05-01T04:36:18.106Z,489.4167
2023-05-01T04:37:22.034Z,489.4167
2023-05-01T04:38:25.936Z,489.3333
2023-05-01T04:39:30.228Z,491.6667
2023-05-01T04:40:34.080Z,491.9167
2023-05-01T04:41:38.222Z,491.6667
2023-05-01T04:42:42.118Z,490.2500
2023-05-01T04:43:45.994Z,490.5000
2023-05-01T04:44:49.921Z,491.3333
2023-05-01T04:45:53.805Z,490.1667
2023-05-01T04:46:57.740Z,489.2500
2023-05-01T04:48:01.699Z,488.4167
2023-05-01T04:49:05.587Z,488.7500
2023-05-01T04:50:09.482Z,491.0833
2023-05-01T04:51:13.392Z,491.5000
2023-05-01T04:52:17.498Z,492.3333
2023-05-01T04:53:21.419Z,491.5000
2023-05-01T04:54:25.313Z,487.2500
2023-05-01T04:55:30.979Z,480.2500
2023-05-01T04:56:29.816Z,482.0909
2023-05-01T04:57:33.962Z,489.2500
2023-05-01T04:58:37.847Z,492.1667
2023-05-01T04:59:41.988Z,492.3333
2023-05-01T05:00:45.919Z,492.0833
2023-05-01T05:01:49.835Z,490.9167
2023-05-01T05:02:53.785Z,488.3333
2023-05-01T05:03:57.735Z,490.1667
2023-05-01T05:05:01.661Z,491.1667
2023-05-01T05:06:05.554Z,492.5000
2023-05-01T05:07:09.724Z,491.9167
2023-05-01T05:08:13.615Z,487.2500
2023-05-01T05:09:20.054Z,484.7500
2023-05-01T05:10:18.885Z,489.5454
2023-05-01T05:11:22.804Z,491.8333
2023-05-01T05:12:26.709Z,493.1667
2023-05-01T05:13:30.602Z,492.9167
2023-05-01T05:14:34.515Z,494.1667
2023-05-01T05:15:38.403Z,490.7500
2023-05-01T05:16:42.310Z,491.4167
2023-05-01T05:17:46.248Z,494.2500
2023-05-01T05:18:50.128Z,495.0000
2023-05-01T05:19:54.269Z,497.0833
2023-05-01T05:20:58.412Z,495.8333
2023-05-01T05:22:02.323Z,492.2500
2023-05-01T05:23:07.335Z,491.3333
2023-05-01T05:24:06.911Z,493.1818
2023-05-01T05:25:10.840Z,492.0000
2023-05-01T05:26:14.717Z,492.3333
2023-05-01T05:27:18.629Z,490.2500
2023-05-01T05:28:22.525Z,488.5000
2023-05-01T05:29:26.749Z,487.3333
2023-05-01T05:30:30.644Z,487.8333
2023-05-01T05:31:34.581Z,489.3333
2023-05-01T05:32:38.724Z,492.6667
2023-05-01T05:33:42.603Z,492.1667
2023-05-01T05:34:46.519Z,487.4167
2023-05-01T05:35:50.402Z,491.3333
2023-05-01T05:36:54.324Z,497.9167
2023-05-01T05:37:58.224Z,498.0000
2023-05-01T05:39:02.209Z,497.3333
2023-05-01T05:40:06.065Z,495.1667
2023-05-01T05:41:09.985Z,488.6667
2023-05-01T05:42:13.923Z,490.5833
2023-05-01T05:43:17.800Z,493.3333
2023-05-01T05:44:21.711Z,492.9167
2023-05-01T05:45:25.605Z,491.5000
2023-05-01T05:46:29.544Z,489.0833
2023-05-01T05:47:33.509Z,487.5000
2023-05-01T05:48:37.380Z,486.7500
2023-05-01T05:49:41.584Z,488.0000
2023-05-01T05:50:45.436Z,489.6667
2023-05-01T05:51:49.354Z,486.1667
2023-05-01T05:52:53.307Z,486.6667
2023-05-01T05:53:57.179Z,487.7500
2023-05-01T05:55:01.090Z,485.8333
2023-05-01T05:56:04.986Z,490.3333
2023-05-01T05:57:08.917Z,491.4167
2023-05-01T05:58:12.836Z,490.1667
2023-05-01T05:59:17.523Z,490.9167
2023-05-01T06:00:21.541Z,490.5000
2023-05-01T06:01:25.424Z,485.4167
2023-05-01T06:02:29.414Z,490.6667
2023-05-01T06:03:33.348Z,496.3333
2023-05-01T06:04:37.365Z,495.2500
2023-05-01T06:05:41.339Z,492.9167
2023-05-01T06:06:45.231Z,489.9167
2023-05-01T06:07:49.131Z,489.5000
2023-05-01T06:08:53.061Z,493.2500
2023-05-01T06:09:57.125Z,494.7500
2023-05-01T06:11:01.173Z,494.5833
2023-05-01T06:12:05.321Z,494.2500
2023-05-01T06:13:13.626Z,491.2500
2023-05-01T06:14:13.673Z,487.8182
2023-05-01T06:15:17.584Z,490.0000
2023-05-01T06:16:21.516Z,492.4167
2023-05-01T06:17:25.454Z,493.2500
2023-05-01T06:18:29.416Z,493.6667
2023-05-01T06:19:33.323Z,490.5000
2023-05-01T06:20:37.212Z,488.2500
2023-05-01T06:21:41.111Z,489.5833
2023-05-01T06:22:45.285Z,492.0000
2023-05-01T06:23:49.272Z,492.2500
2023-05-01T06:24:53.158Z,492.0000
2023-05-01T06:25:57.063Z,492.0833
2023-05-01T06:27:01.608Z,488.5000
2023-05-01T06:28:05.552Z,486.0833
2023-05-01T06:29:09.444Z,490.7500
2023-05-01T06:30:13.389Z,495.0000
2023-05-01T06:31:17.274Z,494.5000
2023-05-01T06:32:21.479Z,491.2500
2023-05-01T06:33:25.376Z,486.1667
2023-05-01T06:34:29.271Z,487.2500
2023-05-01T06:35:33.173Z,490.3333
2023-05-01T06:36:37.094Z,492.3333
2023-05-01T06:37:40.976Z,493.0000
2023-05-01T06:38:44.868Z,491.7500
2023-05-01T06:39:48.819Z,488.0000
2023-05-01T06:40:52.691Z,488.5833
2023-05-01T06:41:56.825Z,491.8333
2023-05-01T06:43:00.783Z,493.0833
2023-05-01T06:44:04.680Z,491.4167
2023-05-01T06:45:08.847Z,491.7500
2023-05-01T06:46:12.788Z,489.0000
2023-05-01T06:47:16.704Z,490.1667
2023-05-01T06:48:20.645Z,492.5833
2023-05-01T06:49:24.543Z,494.3333
2023-05-01T06:50:28.443Z,493.7500
2023-05-01T06:51:32.345Z,491.2500
2023-05-01T06:52:36.449Z,487.5833
2023-05-01T06:53:40.349Z,486.3333
2023-05-01T06:54:44.267Z,492.5833
2023-05-01T06:55:48.185Z,496.8333
2023-05-01T06:56:52.078Z,497.0000
2023-05-01T06:57:56.000Z,495.1667
2023-05-01T06:58:59.899Z,491.5000
2023-05-01T07:00:03.773Z,486.7500
2023-05-01T07:01:08.036Z,485.9167
2023-05-01T07:02:11.972Z,486.3333
2023-05-01T07:03:15.859Z,487.0833
2023-05-01T07:04:19.785Z,489.5000
2023-05-01T07:05:23.737Z,490.3333
2023-05-01T07:06:27.636Z,488.0833
2023-05-01T07:07:31.610Z,489.0833
2023-05-01T07:08:35.489Z,489.6667
2023-05-01T07:09:39.375Z,491.7500
2023-05-01T07:10:43.300Z,492.8333
2023-05-01T07:11:47.179Z,492.7500
2023-05-01T07:12:51.095Z,489.0833
2023-05-01T07:13:54.997Z,489.0833
2023-05-01T07:14:58.941Z,494.3333
2023-05-01T07:16:02.867Z,497.1667
2023-05-01T07:17:07.088Z,495.2500
2023-05-01T07:18:10.995Z,492.9167
2023-05-01T07:19:14.936Z,492.1667
2023-05-01T07:20:19.174Z,490.5833
2023-05-01T07:21:23.155Z,493.9167
2023-05-01T07:22:27.008Z,490.1667
2023-05-01T07:23:30.924Z,492.0833
2023-05-01T07:24:34.812Z,495.5000
2023-05-01T07:25:38.716Z,491.6667
2023-05-01T07:26:39.869Z,491.3000
2023-05-01T07:27:43.785Z,497.0833
2023-05-01T07:28:47.660Z,495.2500
2023-05-01T07:29:51.571Z,492.9167
2023-05-01T07:30:55.476Z,494.9167
2023-05-01T07:31:59.750Z,492.7500
2023-05-01T07:33:03.668Z,489.8333
2023-05-01T07:34:07.607Z,488.8333
2023-05-01T07:35:11.775Z,489.7500
2023-05-01T07:36:15.650Z,490.5000
2023-05-01T07:37:19.569Z,488.2500
2023-05-01T07:38:23.471Z,486.8333
2023-05-01T07:39:27.353Z,486.5833
2023-05-01T07:40:31.269Z,487.7500
2023-05-01T07:41:35.167Z,490.0000
2023-05-01T07:42:39.408Z,489.3333
2023-05-01T07:43:43.305Z,491.2500
2023-05-01T07:44:47.206Z,489.2500
2023-05-01T07:45:51.141Z,486.9167
2023-05-01T07:46:55.015Z,491.8333
2023-05-01T07:47:58.969Z,494.2500
2023-05-01T07:48:59.798Z,494.3000
2023-05-01T07:50:05.301Z,493.3750
2023-05-01T07:51:08.427Z,491.8889
2023-05-01T07:52:11.991Z,492.5555
2023-05-01T07:53:12.793Z,494.8000
2023-05-01T07:54:13.646Z,495.6000
2023-05-01T07:55:17.537Z,495.2500
2023-05-01T07:56:21.444Z,492.8333
2023-05-01T07:57:25.364Z,491.1667
2023-05-01T07:58:29.268Z,488.8333
2023-05-01T07:59:34.025Z,493.0000
2023-05-01T08:00:37.929Z,492.5833
2023-05-01T08:01:41.814Z,491.8333
2023-05-01T08:02:45.817Z,492.3333
2023-05-01T08:03:51.035Z,493.6667
2023-05-01T08:04:50.239Z,489.9091
2023-05-01T08:05:54.131Z,489.0000
2023-05-01T08:06:58.389Z,490.8333
2023-05-01T08:08:02.292Z,492.4167
2023-05-01T08:09:06.182Z,492.6667
2023-05-01T08:10:10.113Z,493.8333
2023-05-01T08:11:13.993Z,489.0833
2023-05-01T08:12:17.932Z,486.2500
2023-05-01T08:13:21.818Z,488.0000
2023-05-01T08:14:25.727Z,489.6667
2023-05-01T08:15:29.639Z,491.2500
2023-05-01T08:16:33.526Z,492.0833
2023-05-01T08:17:37.423Z,487.8333
2023-05-01T08:18:41.337Z,488.5000
2023-05-01T08:19:45.459Z,490.9167
2023-05-01T08:20:48.567Z,490.7778
2023-05-01T08:21:49.461Z,489.9000
2023-05-01T08:22:50.298Z,491.6000
2023-05-01T08:23:55.644Z,487.8750
2023-05-01T08:24:56.601Z,484.8000
2023-05-01T08:25:59.664Z,491.0000
2023-05-01T08:27:03.566Z,494.5000
2023-05-01T08:28:07.462Z,493.4167
2023-05-01T08:29:11.374Z,494.5833
2023-05-01T08:30:15.274Z,492.1667
2023-05-01T08:31:19.224Z,490.3333
2023-05-01T08:32:23.181Z,494.0000
2023-05-01T08:33:27.035Z,497.0000
2023-05-01T08:34:31.191Z,495.8333
2023-05-01T08:35:35.104Z,497.3333
2023-05-01T08:36:39.014Z,494.9167
2023-05-01T08:37:42.940Z,484.9167
2023-05-01T08:38:46.823Z,490.5000
2023-05-01T08:39:50.728Z,490.0833
2023-05-01T08:40:54.654Z,493.7500
2023-05-01T08:41:58.543Z,492.2500
2023-05-01T08:43:02.457Z,489.7500
2023-05-01T08:44:06.380Z,483.9167
2023-05-01T08:45:06.510Z,490.7273
2023-05-01T08:46:10.416Z,492.5000
2023-05-01T08:47:14.431Z,488.0833
2023-05-01T08:48:18.355Z,486.3333
2023-05-01T08:49:22.235Z,485.5000
2023-05-01T08:50:26.199Z,483.0000
2023-05-01T08:51:30.094Z,480.7500
2023-05-01T08:52:30.371Z,482.7273
2023-05-01T08:53:34.260Z,484.0833
2023-05-01T08:54:38.178Z,485.3333
2023-05-01T08:55:42.071Z,484.3333
2023-05-01T08:56:46.006Z,480.8333
2023-05-01T08:57:49.883Z,478.8333
2023-05-01T08:58:53.789Z,479.9167
2023-05-01T08:59:57.851Z,479.0000
2023-05-01T09:01:01.824Z,478.8333
2023-05-01T09:02:06.115Z,479.9167
2023-05-01T09:03:10.136Z,477.4167
2023-05-01T09:04:14.131Z,479.3333
2023-05-01T09:05:17.996Z,483.4167
2023-05-01T09:06:21.988Z,486.6667
2023-05-01T09:07:25.858Z,486.4167
2023-05-01T09:08:29.763Z,485.0833
2023-05-01T09:09:33.713Z,483.0000
2023-05-01T09:10:37.581Z,482.5000
2023-05-01T09:11:41.472Z,489.2500
2023-05-01T09:12:45.361Z,489.6667
2023-05-01T09:13:49.272Z,488.5833
2023-05-01T09:14:53.188Z,487.2500
2023-05-01T09:15:57.189Z,485.2500
2023-05-01T09:17:01.114Z,483.2500
2023-05-01T09:18:05.007Z,484.5833
2023-05-01T09:19:08.900Z,486.1667
2023-05-01T09:20:12.799Z,486.0000
2023-05-01T09:21:16.697Z,489.0000
2023-05-01T09:22:20.615Z,490.8333
2023-05-01T09:23:24.536Z,489.3333
2023-05-01T09:24:28.425Z,488.0000
2023-05-01T09:25:32.323Z,490.5833
2023-05-01T09:26:36.209Z,489.3333
2023-05-01T09:27:40.136Z,485.5833
2023-05-01T09:28:44.033Z,485.4167
2023-05-01T09:29:48.231Z,484.6667
2023-05-01T09:30:52.106Z,488.7500
2023-05-01T09:31:56.019Z,492.0000
2023-05-01T09:32:59.968Z,493.1667
2023-05-01T09:34:03.897Z,493.1667
2023-05-01T09:35:07.791Z,490.8333
2023-05-01T09:36:11.684Z,485.7500
2023-05-01T09:37:15.820Z,484.5833
2023-05-01T09:38:19.726Z,484.6667
2023-05-01T09:39:23.953Z,486.5000
2023-05-01T09:40:27.877Z,487.2500
2023-05-01T09:41:31.773Z,490.4167
2023-05-01T09:42:35.686Z,488.8333
2023-05-01T09:43:39.566Z,486.0833
2023-05-01T09:44:43.494Z,487.6667
2023-05-01T09:45:47.381Z,489.4167
2023-05-01T09:46:51.281Z,492.2500
2023-05-01T09:47:55.219Z,490.3333
2023-05-01T09:48:59.170Z,483.6667
2023-05-01T09:50:03.118Z,485.5833
2023-05-01T09:51:07.000Z,490.0833
2023-05-01T09:52:10.947Z,489.6667
2023-05-01T09:53:14.869Z,489.0833
2023-05-01T09:54:18.788Z,487.6667
2023-05-01T09:55:24.091Z,486.1667
2023-05-01T09:56:23.862Z,485.6364
2023-05-01T09:57:27.750Z,488.3333
2023-05-01T09:58:32.031Z,488.5833
2023-05-01T09:59:35.908Z,490.5000
2023-05-01T10:00:39.820Z,493.0833
2023-05-01T10:01:43.876Z,488.7500
2023-05-01T10:02:48.000Z,484.1667
2023-05-01T10:03:52.066Z,484.3333
2023-05-01T10:04:56.023Z,484.8333
2023-05-01T10:05:59.961Z,485.7500
2023-05-01T10:07:03.913Z,485.3333
2023-05-01T10:08:07.794Z,482.1667
2023-05-01T10:09:11.712Z,480.0833
2023-05-01T10:10:15.612Z,485.9167
2023-05-01T10:11:19.514Z,488.5000
2023-05-01T10:12:23.420Z,486.5833
2023-05-01T10:13:27.354Z,485.2500
2023-05-01T10:14:31.207Z,483.0833
2023-05-01T10:15:35.121Z,479.0833
2023-05-01T10:16:39.145Z,479.9167
2023-05-01T10:17:43.192Z,483.8333
2023-05-01T10:18:47.065Z,484.9167
2023-05-01T10:19:51.245Z,485.9167
2023-05-01T10:20:55.188Z,486.9167
2023-05-01T10:21:59.351Z,483.8333
2023-05-01T10:23:03.260Z,485.7500
2023-05-01T10:24:07.168Z,488.2500
2023-05-01T10:25:11.056Z,488.1667
2023-05-01T10:26:14.953Z,487.1667
2023-05-01T10:27:18.860Z,485.8333
2023-05-01T10:28:22.746Z,481.7500
2023-05-01T10:29:23.120Z,481.9091
2023-05-01T10:30:26.997Z,485.1667
2023-05-01T10:31:30.938Z,487.0000
2023-05-01T10:32:34.883Z,487.2500
2023-05-01T10:33:38.746Z,486.6667
2023-05-01T10:34:42.647Z,485.5000
2023-05-01T10:35:46.567Z,485.6667
2023-05-01T10:36:50.501Z,488.2500
2023-05-01T10:37:54.367Z,487.5833
2023-05-01T10:38:58.290Z,488.3333
2023-05-01T10:40:02.428Z,487.5000
2023-05-01T10:41:06.335Z,483.7500
2023-05-01T10:42:10.218Z,483.2500
2023-05-01T10:43:14.133Z,484.8333
2023-05-01T10:44:18.047Z,484.5833
2023-05-01T10:45:21.982Z,485.0000
2023-05-01T10:46:25.856Z,484.6667
2023-05-01T10:47:29.815Z,480.3333
2023-05-01T10:48:33.694Z,480.8333
2023-05-01T10:49:37.844Z,486.6667
2023-05-01T10:50:41.738Z,491.5000
2023-05-01T10:51:45.644Z,492.7500
2023-05-01T10:52:49.529Z,490.6667
2023-05-01T10:53:53.448Z,485.3333
2023-05-01T10:54:57.769Z,482.3333
2023-05-01T10:56:01.785Z,484.5000
2023-05-01T10:57:05.705Z,484.5000
2023-05-01T10:58:09.589Z,485.3333
2023-05-01T10:59:13.503Z,486.2500
2023-05-01T11:00:17.409Z,484.2500
2023-05-01T11:01:21.347Z,482.0000
2023-05-01T11:02:25.351Z,487.1667
2023-05-01T11:03:29.252Z,489.0000
2023-05-01T11:04:33.388Z,489.5833
2023-05-01T11:05:38.823Z,488.9167
2023-05-01T11:06:37.567Z,486.9091
2023-05-01T11:07:41.554Z,481.6667
2023-05-01T11:08:46.429Z,484.3333
2023-05-01T11:09:50.339Z,486.5833
2023-05-01T11:10:54.245Z,486.5833
2023-05-01T11:11:58.147Z,485.1667
2023-05-01T11:13:02.035Z,484.1667
2023-05-01T11:14:05.964Z,483.8333
2023-05-01T11:15:09.841Z,486.0833
2023-05-01T11:16:13.792Z,487.0833
2023-05-01T11:17:17.688Z,488.5000
2023-05-01T11:18:21.600Z,488.5000
2023-05-01T11:19:26.213Z,485.7500
2023-05-01T11:20:25.802Z,483.4546
2023-05-01T11:21:29.680Z,485.0833
2023-05-01T11:22:33.641Z,486.7500
2023-05-01T11:23:37.566Z,487.8333
2023-05-01T11:24:41.636Z,486.5000
2023-05-01T11:25:45.617Z,485.2500
2023-05-01T11:26:49.488Z,482.9167
2023-05-01T11:27:53.394Z,483.0000
2023-05-01T11:28:57.284Z,486.5833
2023-05-01T11:30:01.210Z,489.0000
2023-05-01T11:31:05.089Z,488.9167
2023-05-01T11:32:09.226Z,486.4167
2023-05-01T11:33:13.151Z,479.0000
2023-05-01T11:34:17.023Z,479.2500
2023-05-01T11:35:21.209Z,483.0833
2023-05-01T11:36:25.121Z,484.9167
2023-05-01T11:37:29.031Z,484.5000
2023-05-01T11:38:32.931Z,481.5833
2023-05-01T11:39:36.899Z,474.0000
2023-05-01T11:40:40.827Z,475.3333
2023-05-01T11:41:44.720Z,480.0833
2023-05-01T11:42:48.975Z,479.8333
2023-05-01T11:43:52.846Z,479.6667
2023-05-01T11:44:56.877Z,478.0833
2023-05-01T11:46:01.061Z,478.0833
2023-05-01T11:47:04.954Z,478.7500
2023-05-01T11:48:08.878Z,482.2500
2023-05-01T11:49:12.834Z,483.4167
2023-05-01T11:50:16.769Z,483.4167
2023-05-01T11:51:20.653Z,482.0000
2023-05-01T11:52:24.545Z,479.7500
2023-05-01T11:53:28.465Z,479.5833
2023-05-01T11:54:32.373Z,480.2500
2023-05-01T11:55:32.754Z,479.5454
2023-05-01T11:56:36.623Z,478.7500
2023-05-01T11:57:40.542Z,478.0000
2023-05-01T11:58:44.474Z,475.0833
2023-05-01T11:59:48.395Z,473.4167
2023-05-01T12:00:52.276Z,474.8333
2023-05-01T12:01:56.229Z,478.8333
2023-05-01T12:03:00.170Z,478.4167
2023-05-01T12:04:04.197Z,477.0833
2023-05-01T12:05:08.306Z,477.9167
2023-05-01T12:06:12.287Z,476.2500
2023-05-01T12:07:16.193Z,478.8333
2023-05-01T12:08:20.081Z,481.8333
2023-05-01T12:09:24.001Z,480.9167
2023-05-01T12:10:27.881Z,479.8333
2023-05-01T12:11:31.769Z,478.5000
2023-05-01T12:12:35.698Z,477.8333
2023-05-01T12:13:39.605Z,482.5833
2023-05-01T12:14:43.496Z,485.1667
2023-05-01T12:15:47.392Z,484.7500
2023-05-01T12:16:51.335Z,483.4167
2023-05-01T12:17:55.274Z,480.3333
2023-05-01T12:18:59.137Z,475.4167
2023-05-01T12:20:03.044Z,475.9167
2023-05-01T12:21:06.950Z,477.7500
2023-05-01T12:22:10.848Z,480.3333
2023-05-01T12:23:14.988Z,482.1667
2023-05-01T12:24:18.912Z,481.3333
2023-05-01T12:25:22.802Z,478.3333
2023-05-01T12:26:26.709Z,477.8333
2023-05-01T12:27:30.623Z,483.0000
2023-05-01T12:28:34.481Z,483.5833
2023-05-01T12:29:38.400Z,483.4167